createdAt,value
2018-03-17T00:01:57.954Z,94038.85
2018-03-17T00:04:24.893Z,94043.78
2018-03-17T00:06:51.822Z,94040.84
2018-03-17T00:09:18.739Z,94055.98
2018-03-17T00:11:45.671Z,94054.33
2018-03-17T00:14:12.603Z,94053.86
2018-03-17T00:16:39.545Z,94058.44
2018-03-17T00:19:06.464Z,94058.81
2018-03-17T00:21:33.384Z,94053.64
2018-03-17T00:24:00.314Z,94050.34
2018-03-17T00:26:27.238Z,94048.36
2018-03-17T00:28:54.165Z,94045.30
2018-03-17T00:31:21.083Z,94049.98
2018-03-17T00:33:48.011Z,94052.25
2018-03-17T00:36:14.936Z,94042.69
2018-03-17T00:38:41.856Z,94040.74
2018-03-17T00:41:08.808Z,94042.69
2018-03-17T00:43:35.741Z,94043.73
2018-03-17T00:46:02.663Z,94045.35
2018-03-17T00:48:29.593Z,94041.36
2018-03-17T00:50:56.517Z,94038.61
2018-03-17T00:53:23.439Z,94036.19
2018-03-17T00:55:50.356Z,94032.59
2018-03-17T00:58:17.280Z,94021.54
2018-03-17T01:00:44.205Z,94025.53
2018-03-17T01:03:11.133Z,94027.41
2018-03-17T01:05:38.080Z,94024.74
2018-03-17T01:08:05.016Z,94012.52
2018-03-17T01:10:31.942Z,94017.09
2018-03-17T01:12:58.870Z,94018.00
2018-03-17T01:15:25.793Z,94017.28
2018-03-17T01:17:52.724Z,94016.67
2018-03-17T01:20:19.650Z,94024.52
2018-03-17T01:22:46.606Z,94019.75
2018-03-17T01:25:13.525Z,94020.05
2018-03-17T01:27:40.449Z,94007.69
2018-03-17T01:30:07.402Z,94017.14
2018-03-17T01:32:34.329Z,94018.59
2018-03-17T01:35:01.257Z,94017.78
2018-03-17T01:37:28.184Z,94013.02
2018-03-17T01:39:55.099Z,94010.64
2018-03-17T01:42:22.018Z,94018.11
2018-03-17T01:44:48.944Z,94012.52
2018-03-17T01:47:15.888Z,94014.67
2018-03-17T01:49:42.812Z,94015.79
2018-03-17T01:52:09.726Z,94010.09
2018-03-17T01:54:36.652Z,94008.17
2018-03-17T01:57:03.575Z,94012.38
2018-03-17T01:59:30.524Z,94018.23
2018-03-17T02:01:57.443Z,94023.73
2018-03-17T02:04:24.358Z,94018.00
2018-03-17T02:06:51.292Z,94013.05
2018-03-17T02:09:18.212Z,94023.87
2018-03-17T02:11:45.136Z,94026.95
2018-03-17T02:14:12.067Z,94009.64
2018-03-17T02:16:38.989Z,94007.66
2018-03-17T02:19:05.903Z,94009.00
2018-03-17T02:21:32.822Z,94012.06
2018-03-17T02:23:59.747Z,94003.67
2018-03-17T02:26:26.668Z,94010.41
2018-03-17T02:28:53.609Z,94019.98
2018-03-17T02:31:20.530Z,94024.08
2018-03-17T02:33:47.453Z,94019.77
2018-03-17T02:36:14.373Z,94018.27
2018-03-17T02:38:41.298Z,94020.19
2018-03-17T02:41:08.225Z,94019.44
2018-03-17T02:43:35.161Z,94019.70
2018-03-17T02:46:02.076Z,94009.23
2018-03-17T02:48:29.016Z,94004.05
2018-03-17T02:50:55.936Z,94013.28
2018-03-17T02:53:22.860Z,94007.50
2018-03-17T02:55:49.792Z,94009.30
2018-03-17T02:58:16.715Z,94014.16
2018-03-17T03:00:43.658Z,94021.92
2018-03-17T03:03:10.576Z,94006.79
2018-03-17T03:05:37.498Z,94011.20
2018-03-17T03:08:04.447Z,94018.34
2018-03-17T03:10:31.337Z,94014.40
2018-03-17T03:12:58.270Z,94017.99
2018-03-17T03:15:25.190Z,94015.73
2018-03-17T03:17:52.135Z,94020.66
2018-03-17T03:20:19.055Z,94035.30
2018-03-17T03:22:45.982Z,94031.42
2018-03-17T03:25:12.907Z,94031.18
2018-03-17T03:27:39.824Z,94039.30
2018-03-17T03:30:06.782Z,94039.86
2018-03-17T03:32:33.703Z,94037.21
2018-03-17T03:35:00.625Z,94025.09
2018-03-17T03:37:27.562Z,94033.22
2018-03-17T03:39:54.491Z,94037.02
2018-03-17T03:42:21.421Z,94025.94
2018-03-17T03:44:48.354Z,94026.44
2018-03-17T03:47:15.308Z,94036.38
2018-03-17T03:49:42.231Z,94033.70
2018-03-17T03:52:09.154Z,94027.56
2018-03-17T03:54:36.084Z,94031.82
2018-03-17T03:57:03.013Z,94034.41
2018-03-17T03:59:29.931Z,94030.70
2018-03-17T04:01:56.860Z,94030.33
2018-03-17T04:04:23.783Z,94025.53
2018-03-17T04:06:50.707Z,94036.98
2018-03-17T04:09:17.635Z,94034.16
2018-03-17T04:11:44.610Z,94017.14
2018-03-17T04:14:11.529Z,94016.14
2018-03-17T04:16:38.454Z,94020.72
2018-03-17T04:19:05.390Z,94025.59
2018-03-17T04:21:32.323Z,94018.37
2018-03-17T04:23:59.234Z,94010.89
2018-03-17T04:26:26.164Z,94017.23
2018-03-17T04:28:53.120Z,94022.30
2018-03-17T04:31:20.041Z,94014.64
2018-03-17T04:33:46.955Z,94012.59
2018-03-17T04:36:13.912Z,94008.23
2018-03-17T04:38:40.837Z,94012.33
2018-03-17T04:41:07.759Z,94012.54
2018-03-17T04:43:34.683Z,94014.16
2018-03-17T04:46:01.624Z,94006.52
2018-03-17T04:48:28.555Z,94017.66
2018-03-17T04:50:55.463Z,94016.97
2018-03-17T04:53:22.387Z,94011.88
2018-03-17T04:55:49.323Z,94009.42
2018-03-17T04:58:16.280Z,93998.88
2018-03-17T05:00:43.211Z,118726.52
2018-03-17T05:06:01.083Z,93995.63
2018-03-17T05:08:28.016Z,93993.54
2018-03-17T05:10:54.937Z,94000.52
2018-03-17T05:13:21.990Z,93998.94
2018-03-17T05:15:48.918Z,93994.44
2018-03-17T05:18:15.864Z,93990.63
2018-03-17T05:20:42.788Z,93991.89
2018-03-17T05:23:09.712Z,93989.61
2018-03-17T05:25:36.635Z,93965.52
2018-03-17T05:28:03.564Z,93973.59
2018-03-17T05:30:30.498Z,93974.59
2018-03-17T05:32:57.414Z,93968.61
2018-03-17T05:35:24.387Z,93961.52
2018-03-17T05:37:51.308Z,93965.98
2018-03-17T05:40:18.234Z,93958.42
2018-03-17T05:42:45.162Z,93950.98
2018-03-17T05:45:12.080Z,93958.78
2018-03-17T05:47:38.999Z,93965.20
2018-03-17T05:50:05.924Z,93956.34
2018-03-17T05:52:32.866Z,93960.81
2018-03-17T05:54:59.782Z,93959.64
2018-03-17T05:57:26.706Z,93970.51
2018-03-17T05:59:53.638Z,93964.01
2018-03-17T06:02:20.554Z,93959.48
2018-03-17T06:04:47.480Z,93966.52
2018-03-17T06:07:14.409Z,93960.81
2018-03-17T06:09:41.326Z,93960.17
2018-03-17T06:12:08.280Z,93938.87
2018-03-17T06:14:35.202Z,93936.76
2018-03-17T06:17:02.115Z,93950.87
2018-03-17T06:19:29.035Z,93939.36
2018-03-17T06:21:55.962Z,93931.84
2018-03-17T06:24:22.883Z,93952.52
2018-03-17T06:26:49.804Z,93972.72
2018-03-17T06:29:16.769Z,93975.70
2018-03-17T06:31:43.687Z,93979.36
2018-03-17T06:34:10.615Z,93983.23
2018-03-17T06:36:37.538Z,93988.89
2018-03-17T06:39:04.463Z,93981.88
2018-03-17T06:41:31.424Z,93988.86
2018-03-17T06:43:58.343Z,93973.81
2018-03-17T06:46:25.266Z,93984.06
2018-03-17T06:48:52.186Z,93973.73
2018-03-17T06:51:19.106Z,93971.47
2018-03-17T06:53:46.031Z,93962.38
2018-03-17T06:56:12.957Z,93965.89
2018-03-17T06:58:39.884Z,93945.92
2018-03-17T07:01:06.808Z,93969.20
2018-03-17T07:03:33.727Z,93967.34
2018-03-17T07:06:00.662Z,93973.14
2018-03-17T07:08:27.581Z,93978.47
2018-03-17T07:10:54.503Z,93964.98
2018-03-17T07:13:21.420Z,93964.19
2018-03-17T07:15:48.335Z,93981.61
2018-03-17T07:18:15.273Z,93974.63
2018-03-17T07:20:42.192Z,93977.45
2018-03-17T07:23:09.117Z,94004.25
2018-03-17T07:25:36.057Z,93977.61
2018-03-17T07:28:03.004Z,93982.28
2018-03-17T07:30:29.931Z,93973.67
2018-03-17T07:32:56.854Z,93927.27
2018-03-17T07:35:23.795Z,93950.33
2018-03-17T07:37:50.769Z,93968.02
2018-03-17T07:40:17.650Z,93947.26
2018-03-17T07:42:44.564Z,93939.66
2018-03-17T07:45:11.490Z,93968.42
2018-03-17T07:47:38.418Z,93951.49
2018-03-17T07:50:05.339Z,93949.77
2018-03-17T07:52:32.260Z,93963.02
2018-03-17T07:54:59.181Z,93941.70
2018-03-17T07:57:26.133Z,93950.47
2018-03-17T07:59:53.059Z,93939.74
2018-03-17T08:02:19.986Z,93953.59
2018-03-17T08:04:46.926Z,118726.52
2018-03-17T08:07:13.864Z,93950.95
2018-03-17T08:09:40.790Z,93911.44
2018-03-17T08:12:07.721Z,93936.00
2018-03-17T08:14:34.649Z,93935.14
2018-03-17T08:17:01.567Z,93920.08
2018-03-17T08:19:28.493Z,93933.47
2018-03-17T08:21:55.422Z,93919.52
2018-03-17T08:24:22.351Z,93926.18
2018-03-17T08:26:49.299Z,118726.52
2018-03-17T08:31:07.932Z,93889.28
2018-03-17T08:33:34.852Z,93915.59
2018-03-17T08:36:01.775Z,93877.95
2018-03-17T08:38:28.708Z,93893.06
2018-03-17T08:40:55.634Z,93905.63
2018-03-17T08:43:22.566Z,93883.06
2018-03-17T08:45:49.482Z,93842.83
2018-03-17T08:48:16.449Z,93844.89
2018-03-17T08:50:43.376Z,93858.15
2018-03-17T08:53:10.348Z,93848.34
2018-03-17T08:55:37.274Z,93833.92
2018-03-17T08:58:04.225Z,93832.27
2018-03-17T09:00:31.170Z,93836.67
2018-03-17T09:02:58.096Z,93839.01
2018-03-17T09:05:25.026Z,93826.72
2018-03-17T09:07:51.953Z,93807.33
2018-03-17T09:10:18.871Z,93824.36
2018-03-17T09:12:45.792Z,93821.30
2018-03-17T09:15:12.718Z,93786.39
2018-03-17T09:17:39.642Z,93789.87
2018-03-17T09:20:06.567Z,93802.97
2018-03-17T09:22:33.525Z,93781.02
2018-03-17T09:25:00.450Z,93766.89
2018-03-17T09:27:27.369Z,93766.81
2018-03-17T09:29:54.293Z,93765.25
2018-03-17T09:32:21.235Z,93770.19
2018-03-17T09:34:48.198Z,93758.97
2018-03-17T09:37:15.116Z,93746.67
2018-03-17T09:39:42.031Z,93744.22
2018-03-17T09:42:08.991Z,93745.35
2018-03-17T09:44:35.906Z,93760.02
2018-03-17T09:47:02.844Z,93750.69
2018-03-17T09:49:29.767Z,93752.02
2018-03-17T09:51:56.690Z,93717.22
2018-03-17T09:54:23.630Z,93732.82
2018-03-17T09:56:50.543Z,93718.39
2018-03-17T09:59:17.499Z,93713.05
2018-03-17T10:01:44.425Z,93716.25
2018-03-17T10:04:11.355Z,93729.98
2018-03-17T10:06:38.295Z,93723.16
2018-03-17T10:09:05.259Z,93724.32
2018-03-17T10:11:32.187Z,93708.64
2018-03-17T10:13:59.107Z,93699.77
2018-03-17T10:16:26.128Z,93689.84
2018-03-17T10:18:53.071Z,93686.94
2018-03-17T10:21:20.007Z,118726.52
2018-03-17T10:23:46.972Z,118726.52
2018-03-17T10:26:13.911Z,118726.52
2018-03-17T10:28:40.847Z,118726.52
2018-03-17T10:31:07.819Z,118726.52
2018-03-17T10:33:34.761Z,118726.52
2018-03-17T10:36:01.702Z,118726.52
2018-03-17T10:38:28.654Z,118726.52
2018-03-17T10:40:55.590Z,118726.52
2018-03-17T10:43:22.534Z,118726.52
2018-03-17T10:45:49.476Z,118726.52
2018-03-17T10:48:16.445Z,118726.52
2018-03-17T10:50:43.390Z,118726.52
2018-03-17T10:53:10.324Z,118726.52
2018-03-17T10:55:37.269Z,118726.52
2018-03-17T10:58:04.214Z,118726.52
2018-03-17T11:00:31.182Z,118726.52
2018-03-17T11:02:58.119Z,118726.52
2018-03-17T11:05:25.060Z,118726.52
2018-03-17T11:07:52.006Z,118726.52
2018-03-17T11:10:18.949Z,118726.52
2018-03-17T11:12:45.914Z,118726.52
2018-03-17T11:15:12.850Z,118726.52
2018-03-17T11:17:39.789Z,118726.52
2018-03-17T11:20:06.736Z,118726.52
2018-03-17T11:22:33.679Z,118726.52
2018-03-17T11:25:00.618Z,118726.52
2018-03-17T11:27:27.570Z,118726.52
2018-03-17T11:29:54.596Z,118726.52
2018-03-17T11:32:21.503Z,118726.52
2018-03-17T11:34:48.450Z,118726.52
2018-03-17T11:37:15.399Z,118726.52
2018-03-17T11:39:42.337Z,118726.52
2018-03-17T11:42:09.274Z,118726.52
2018-03-17T11:44:36.210Z,118726.52
2018-03-17T11:47:03.200Z,118726.52
2018-03-17T11:49:30.129Z,118726.52
2018-03-17T11:51:57.107Z,118726.52
2018-03-17T11:54:24.062Z,118726.52
2018-03-17T11:56:51.004Z,118726.52
2018-03-17T11:59:17.944Z,118726.52
2018-03-17T12:01:44.883Z,118726.52
2018-03-17T12:04:11.837Z,118726.52
2018-03-17T12:06:38.779Z,118726.52
2018-03-17T12:09:05.714Z,118726.52
2018-03-17T12:11:32.680Z,118726.52
2018-03-17T12:13:59.628Z,118726.52
2018-03-17T12:16:26.751Z,118726.52
2018-03-17T12:18:53.661Z,118726.52
2018-03-17T12:21:20.604Z,118726.52
2018-03-17T12:23:47.546Z,118726.52
2018-03-17T12:26:14.488Z,118726.52
2018-03-17T12:28:41.427Z,118726.52
2018-03-17T12:31:08.357Z,118726.52
2018-03-17T12:33:35.309Z,118726.52
2018-03-17T12:36:02.291Z,118726.52
2018-03-17T12:38:29.224Z,118726.52
2018-03-17T12:40:56.162Z,118726.52
2018-03-17T12:43:23.103Z,118726.52
2018-03-17T12:45:50.038Z,118726.52
2018-03-17T12:48:16.981Z,118726.52
2018-03-17T12:50:44.047Z,118726.52
2018-03-17T12:53:10.989Z,118726.52
2018-03-17T12:55:37.921Z,118726.52
2018-03-17T12:58:04.864Z,118726.52
2018-03-17T13:00:31.805Z,118726.52
2018-03-17T13:02:58.740Z,118726.52
2018-03-17T13:05:25.677Z,118726.52
2018-03-17T13:07:52.623Z,118726.52
2018-03-17T13:10:19.570Z,118726.52
2018-03-17T13:12:46.497Z,118726.52
2018-03-17T13:15:13.423Z,118726.52
2018-03-17T13:17:40.379Z,118726.52
2018-03-17T13:20:07.321Z,118726.52
2018-03-17T13:22:34.254Z,118726.52
2018-03-17T13:25:01.191Z,118726.52
2018-03-17T13:27:28.137Z,118726.52
2018-03-17T13:29:55.069Z,118726.52
2018-03-17T13:32:22.005Z,118726.52
2018-03-17T13:34:48.939Z,118726.52
2018-03-17T13:37:15.876Z,118726.52
2018-03-17T13:39:42.810Z,118726.52
2018-03-17T13:42:09.782Z,118726.52
2018-03-17T13:44:36.711Z,118726.52
2018-03-17T13:47:03.660Z,118726.52
2018-03-17T13:49:30.635Z,118726.52
2018-03-17T13:51:57.527Z,118726.52
2018-03-17T13:54:24.524Z,118726.52
2018-03-17T13:56:51.382Z,118726.52
2018-03-17T13:59:18.389Z,118726.52
2018-03-17T14:01:45.270Z,118726.52
2018-03-17T14:04:12.220Z,118726.52
2018-03-17T14:06:39.178Z,118726.52
2018-03-17T14:09:06.131Z,118726.52
2018-03-17T14:11:33.079Z,118726.52
2018-03-17T14:14:00.028Z,118726.52
2018-03-17T14:16:26.980Z,118726.52
2018-03-17T14:18:53.930Z,118726.52
2018-03-17T14:21:20.857Z,118726.52
2018-03-17T14:23:47.872Z,118726.52
2018-03-17T14:26:14.734Z,118726.52
2018-03-17T14:28:41.711Z,118726.52
2018-03-17T14:31:08.654Z,118726.52
2018-03-17T14:33:35.602Z,118726.52
2018-03-17T14:36:02.571Z,118726.52
2018-03-17T14:38:29.519Z,118726.52
2018-03-17T14:40:56.516Z,118726.52
2018-03-17T14:43:23.425Z,118726.52
2018-03-17T14:45:50.372Z,118726.52
2018-03-17T14:48:18.749Z,118726.52
2018-03-17T14:50:45.700Z,118726.52
2018-03-17T14:53:12.654Z,118726.52
2018-03-17T14:55:39.598Z,118726.52
2018-03-17T14:58:06.542Z,118726.52
2018-03-17T15:00:33.476Z,118726.52
2018-03-17T15:03:00.417Z,118726.52
2018-03-17T15:05:27.347Z,118726.52
2018-03-17T15:07:54.299Z,118726.52
2018-03-17T15:10:21.243Z,118726.52
2018-03-17T15:12:48.196Z,118726.52
2018-03-17T15:15:15.193Z,118726.52
2018-03-17T15:17:42.091Z,118726.52
2018-03-17T15:20:09.036Z,118726.52
2018-03-17T15:22:36.006Z,118726.52
2018-03-17T15:25:02.955Z,118726.52
2018-03-17T15:27:29.899Z,118726.52
2018-03-17T15:29:56.841Z,118726.52
2018-03-17T15:32:23.786Z,118726.52
2018-03-17T15:34:50.750Z,118726.52
2018-03-17T15:37:17.695Z,118726.52
2018-03-17T15:39:44.637Z,118726.52
2018-03-17T15:42:11.625Z,118726.52
2018-03-17T15:44:38.573Z,118726.52
2018-03-17T15:47:05.526Z,118726.52
2018-03-17T15:49:32.479Z,118726.52
2018-03-17T15:51:59.417Z,118726.52
2018-03-17T15:54:26.399Z,118726.52
2018-03-17T15:56:53.305Z,118726.52
2018-03-17T15:59:20.254Z,118726.52
2018-03-17T16:01:47.180Z,118726.52
2018-03-17T16:04:14.138Z,118726.52
2018-03-17T16:06:41.076Z,118726.52
2018-03-17T16:09:07.998Z,118726.52
2018-03-17T16:11:34.997Z,118726.52
2018-03-17T16:14:02.015Z,118726.52
